This is the latest recevied weather packets stored in our database for station/object WB8SKP-WX. If no packets are shown the sender has not sent any weather packets the latest 10 day(s).
| Time | Temp. | Humidity | Pressure | Rain* | Wind** | Luminosity | Snow |
|---|---|---|---|---|---|---|---|
| 1777469796 | 16.67° C | 99% | 994.1 hPa | 0 mm | - | - | - |
| 1777468566 | 16.67° C | 99% | 993.6 hPa | 0 mm | - | - | - |
| 1777467366 | 16.67° C | 99% | 993.2 hPa | 0 mm | - | - | - |
| 1777466166 | 17.22° C | 99% | 992.8 hPa | 0 mm | - | - | - |
| 1777464936 | 17.22° C | 99% | 992.5 hPa | 0 mm | - | - | - |
| 1777463736 | 26.67° C | 69% | 990.1 hPa | 0 mm | - | - | - |
| 1777320727 | 26.67° C | 68% | 990.2 hPa | 0 mm | - | - | - |
| 1777319531 | 26.67° C | 68% | 990.2 hPa | 0 mm | - | - | - |
| 1777318300 | 26.67° C | 69% | 990.7 hPa | 0 mm | - | - | - |
| 1777317101 | 26.11° C | 70% | 991.1 hPa | 0 mm | - | - | - |
| 1777315901 | 25.56° C | 72% | 991.3 hPa | 0 mm | - | - | - |
| 1777314671 | 25.56° C | 71% | 991.6 hPa | 0 mm | - | - | - |
| 1777313440 | 26.11° C | 70% | 991.9 hPa | 0 mm | - | - | - |
| 1777312241 | 26.11° C | 69% | 992 hPa | 0 mm | - | - | - |
| 1777311010 | 25° C | 71% | 992.3 hPa | 0 mm | - | - | - |
| 1777309811 | 25° C | 72% | 992.4 hPa | 0 mm | - | - | - |
| 1777308610 | 24.44° C | 72% | 992.7 hPa | 0 mm | - | - | - |
| 1777307412 | 24.44° C | 72% | 992.5 hPa | 0 mm | - | - | - |
| 1777306180 | 23.33° C | 74% | 993 hPa | 0 mm | - | - | - |
| 1777304954 | 23.33° C | 73% | 992.9 hPa | 0 mm | - | - | - |
| 1777303758 | 23.33° C | 73% | 993 hPa | 0 mm | - | - | - |
| 1777302551 | 22.78° C | 73% | 992.9 hPa | 0 mm | - | - | - |
| 1777301320 | 22.22° C | 74% | 992.9 hPa | 0 mm | - | - | - |
| 1777300090 | 21.11° C | 78% | 993.1 hPa | 0 mm | - | - | - |
| 1777298890 | 20.56° C | 79% | 993.1 hPa | 0 mm | - | - | - |
* Rain latest hour (hover to see other rain measurements)
** Current wind speed in m/s (hover to see current wind gust speed)